Time;durP1;ratioP1;P1;durP2;ratioP2;P2;SDS_P1;SDS_P2;PMS_P1;PMS_P2;Temp;Humidity;BMP_temperature;BMP_pressure;BME280_temperature;BME280_humidity;BME280_pressure;Samples;Min_cycle;Max_cycle;Signal;HPM_P1;HPM_P2
2024/03/04 00:01:13;;;;;;;26.73;15.52;;;6.90;99.90;;;;;;5027394;28;20053;-51
2024/03/04 00:03:40;;;;;;;27.80;15.13;;;6.90;99.90;;;;;;5027646;28;20054;-50
2024/03/04 00:06:07;;;;;;;29.67;14.93;;;6.80;99.90;;;;;;5029091;28;20092;-51
2024/03/04 00:08:34;;;;;;;28.25;16.00;;;6.80;99.90;;;;;;5028654;28;20055;-43
2024/03/04 00:11:01;;;;;;;26.30;15.40;;;6.80;99.90;;;;;;5031828;28;20149;-45
2024/03/04 00:13:28;;;;;;;22.30;14.27;;;6.80;99.90;;;;;;5028032;28;20502;-49
2024/03/04 00:15:55;;;;;;;24.20;14.05;;;6.80;99.90;;;;;;5027624;28;20503;-49
2024/03/04 00:18:23;;;;;;;22.50;13.43;;;6.80;99.90;;;;;;5025432;28;20038;-50
2024/03/04 00:20:50;;;;;;;26.55;14.80;;;6.80;99.90;;;;;;5023094;28;20055;-48
2024/03/04 00:23:17;;;;;;;24.55;14.10;;;6.70;99.90;;;;;;5007365;28;20506;-46
2024/03/04 00:25:45;;;;;;;29.45;14.90;;;6.80;99.90;;;;;;5026454;28;20503;-51
2024/03/04 00:28:12;;;;;;;23.70;14.05;;;6.70;99.90;;;;;;5026824;28;20041;-51
2024/03/04 00:30:41;;;;;;;27.75;14.88;;;6.70;99.90;;;;;;5028769;28;20104;-45
2024/03/04 00:33:08;;;;;;;25.45;14.35;;;6.70;99.90;;;;;;5032525;28;20545;-48
2024/03/04 00:35:35;;;;;;;23.48;13.75;;;6.70;99.90;;;;;;5028301;28;20041;-51
2024/03/04 00:38:02;;;;;;;24.02;13.50;;;6.70;99.90;;;;;;5025982;28;20045;-52
2024/03/04 00:40:30;;;;;;;27.83;14.93;;;6.70;99.90;;;;;;5025760;28;20482;-51
2024/03/04 00:42:57;;;;;;;23.40;13.55;;;6.60;99.90;;;;;;5025929;28;20538;-47
2024/03/04 00:45:25;;;;;;;21.60;13.32;;;6.60;99.90;;;;;;5026856;28;20865;-46
2024/03/04 00:47:52;;;;;;;26.35;14.23;;;6.50;99.90;;;;;;5025426;28;20561;-46
2024/03/04 00:50:19;;;;;;;24.30;14.30;;;6.50;99.90;;;;;;5010383;28;20112;-48
2024/03/04 00:52:46;;;;;;;27.15;14.88;;;6.50;99.90;;;;;;5028223;28;20071;-47
2024/03/04 00:55:13;;;;;;;26.63;14.57;;;6.40;99.90;;;;;;5026030;28;20134;-52
2024/03/04 00:57:40;;;;;;;25.20;14.45;;;6.40;99.90;;;;;;5026355;28;20431;-48
2024/03/04 01:00:14;;;;;;;25.60;13.90;;;6.40;99.90;;;;;;5024615;28;20072;-52
2024/03/04 01:02:41;;;;;;;23.83;13.85;;;6.30;99.90;;;;;;5024396;28;20216;-53
2024/03/04 01:05:08;;;;;;;25.38;14.73;;;6.30;99.90;;;;;;5024784;28;20061;-52
2024/03/04 01:07:35;;;;;;;27.27;15.13;;;6.20;99.90;;;;;;5024843;28;20076;-51
2024/03/04 01:10:03;;;;;;;26.90;15.32;;;6.20;99.90;;;;;;5026107;28;20118;-48
2024/03/04 01:12:30;;;;;;;22.83;14.00;;;6.10;99.90;;;;;;5029674;28;20037;-46
2024/03/04 01:14:57;;;;;;;25.25;14.75;;;6.10;99.90;;;;;;5026271;28;20446;-48
2024/03/04 01:17:24;;;;;;;25.63;14.07;;;6.10;99.90;;;;;;5023810;28;20037;-54
2024/03/04 01:19:51;;;;;;;25.50;13.65;;;6.00;99.90;;;;;;5025343;28;20065;-51
2024/03/04 01:22:18;;;;;;;24.10;14.43;;;6.00;99.90;;;;;;5025658;28;20128;-50
2024/03/04 01:24:50;;;;;;;24.55;14.43;;;6.00;99.90;;;;;;5024837;28;20544;-50
2024/03/04 01:27:17;;;;;;;24.77;14.23;;;6.00;99.90;;;;;;5026295;28;20101;-47
2024/03/04 01:29:44;;;;;;;27.17;16.00;;;5.90;99.90;;;;;;5026341;28;20280;-49
2024/03/04 01:32:11;;;;;;;25.83;15.05;;;5.90;99.90;;;;;;5025045;28;20545;-48
2024/03/04 01:34:41;;;;;;;23.98;14.70;;;5.90;99.90;;;;;;5023532;28;20053;-48
2024/03/04 01:37:09;;;;;;;24.17;13.85;;;5.90;99.90;;;;;;5025412;28;20056;-51
2024/03/04 01:39:37;;;;;;;26.60;15.10;;;5.90;99.90;;;;;;5025818;28;20041;-46
2024/03/04 01:42:04;;;;;;;25.73;15.27;;;5.80;99.90;;;;;;5025226;28;20065;-47
2024/03/04 01:44:35;;;;;;;22.13;13.18;;;5.80;99.90;;;;;;5024440;28;20184;-48
2024/03/04 01:47:07;;;;;;;28.50;14.57;;;5.80;99.90;;;;;;5025025;28;20510;-48
2024/03/04 01:49:36;;;;;;;23.50;14.00;;;5.80;99.90;;;;;;5025154;28;20341;-48
2024/03/04 01:52:05;;;;;;;26.58;14.88;;;5.70;99.90;;;;;;5026592;28;20460;-54
2024/03/04 01:54:35;;;;;;;24.85;14.48;;;5.70;99.90;;;;;;5011741;28;20041;-50
2024/03/04 01:57:03;;;;;;;32.38;15.63;;;5.70;99.90;;;;;;5016737;28;20159;-45
2024/03/04 01:59:31;;;;;;;28.75;15.82;;;5.70;99.90;;;;;;5021973;28;20038;-47
2024/03/04 02:02:00;;;;;;;26.30;14.82;;;5.70;99.90;;;;;;5007601;28;20052;-45
2024/03/04 02:04:30;;;;;;;29.23;15.88;;;5.60;99.90;;;;;;5024455;28;20506;-50
2024/03/04 02:06:58;;;;;;;24.40;14.65;;;5.60;99.90;;;;;;5026364;28;20140;-48
2024/03/04 02:09:27;;;;;;;27.83;15.68;;;5.60;99.90;;;;;;5025260;28;20068;-50
2024/03/04 02:11:54;;;;;;;23.88;14.80;;;5.50;99.90;;;;;;5029548;28;20129;-49
2024/03/04 02:14:22;;;;;;;24.88;15.00;;;5.50;99.90;;;;;;5027596;28;20049;-50
2024/03/04 02:16:49;;;;;;;26.65;14.95;;;5.50;99.90;;;;;;5027934;28;20057;-46
2024/03/04 02:19:18;;;;;;;27.63;13.93;;;5.50;99.90;;;;;;5021092;28;20049;-47
2024/03/04 02:21:58;;;;;;;27.13;14.88;;;5.40;99.90;;;;;;5026612;28;20065;-46
2024/03/04 02:24:25;;;;;;;28.63;15.07;;;5.50;99.90;;;;;;5027470;28;20041;-47
2024/03/04 02:26:52;;;;;;;25.65;13.75;;;5.50;99.90;;;;;;5028814;28;20052;-52
2024/03/04 02:29:19;;;;;;;26.38;15.45;;;5.50;99.90;;;;;;5029592;28;20080;-48
2024/03/04 02:31:47;;;;;;;27.52;15.40;;;5.50;99.90;;;;;;5026978;28;20140;-49
2024/03/04 02:34:14;;;;;;;24.85;14.57;;;5.40;99.90;;;;;;5025211;28;20045;-50
2024/03/04 02:36:41;;;;;;;22.77;13.32;;;5.40;99.90;;;;;;5024077;28;20034;-48
2024/03/04 02:39:12;;;;;;;29.30;16.10;;;5.40;99.90;;;;;;5031630;28;20458;-50
2024/03/04 02:41:39;;;;;;;24.55;14.20;;;5.40;99.90;;;;;;5025239;28;20049;-51
2024/03/04 02:44:07;;;;;;;24.92;14.10;;;5.40;99.90;;;;;;5025766;28;20049;-49
2024/03/04 02:46:34;;;;;;;25.70;14.70;;;5.40;99.90;;;;;;5028981;28;20634;-47
2024/03/04 02:49:02;;;;;;;25.70;14.85;;;5.30;99.90;;;;;;5030173;28;20782;-46
2024/03/04 02:51:30;;;;;;;25.13;14.13;;;5.30;99.90;;;;;;5028770;28;20407;-48
2024/03/04 02:53:58;;;;;;;27.08;15.43;;;5.30;99.90;;;;;;5031825;28;20049;-47
2024/03/04 02:56:25;;;;;;;25.23;14.27;;;5.30;99.90;;;;;;5033606;28;20133;-47
2024/03/04 02:58:52;;;;;;;26.95;15.48;;;5.30;99.90;;;;;;5030653;28;20453;-46
2024/03/04 03:01:19;;;;;;;26.48;14.07;;;5.20;99.90;;;;;;5030183;28;20044;-46
2024/03/04 03:03:47;;;;;;;30.45;16.17;;;5.20;99.90;;;;;;5029501;28;20557;-52
2024/03/04 03:06:14;;;;;;;26.00;15.80;;;5.20;99.90;;;;;;5029771;28;20160;-48
2024/03/04 03:08:41;;;;;;;32.65;15.25;;;5.20;99.90;;;;;;5029563;28;20037;-49
2024/03/04 03:11:08;;;;;;;29.65;14.98;;;5.20;99.90;;;;;;5029369;28;20034;-49
2024/03/04 03:13:35;;;;;;;24.00;13.13;;;5.10;99.90;;;;;;5034803;28;20095;-52
2024/03/04 03:16:03;;;;;;;28.30;15.55;;;5.10;99.90;;;;;;5032725;28;20038;-48
2024/03/04 03:18:31;;;;;;;30.35;15.23;;;5.10;99.90;;;;;;5037093;28;20037;-49
2024/03/04 03:20:59;;;;;;;29.92;16.88;;;5.10;99.90;;;;;;5029186;28;20461;-47
2024/03/04 03:23:25;;;;;;;26.10;15.10;;;5.10;99.90;;;;;;5029460;28;20090;-50
2024/03/04 03:25:52;;;;;;;31.38;16.58;;;5.00;99.90;;;;;;5030457;28;20430;-49
2024/03/04 03:28:19;;;;;;;27.42;15.45;;;5.00;99.90;;;;;;5029645;28;20044;-53
2024/03/04 03:30:46;;;;;;;28.17;15.57;;;4.90;99.90;;;;;;5027775;28;20537;-47
2024/03/04 03:33:13;;;;;;;31.15;16.00;;;4.90;99.90;;;;;;5028935;28;20348;-49
2024/03/04 03:35:40;;;;;;;30.77;15.90;;;4.80;99.90;;;;;;5028265;28;20487;-50
2024/03/04 03:38:07;;;;;;;28.00;16.00;;;4.80;99.90;;;;;;5028983;28;20128;-48
2024/03/04 03:40:34;;;;;;;23.42;14.13;;;4.80;99.90;;;;;;5028355;28;20224;-53
2024/03/04 03:43:02;;;;;;;27.70;14.90;;;4.70;99.90;;;;;;5028704;28;20053;-53
2024/03/04 03:45:28;;;;;;;27.55;15.32;;;4.60;99.90;;;;;;5027770;28;20053;-48
2024/03/04 03:47:55;;;;;;;26.13;14.13;;;4.60;99.90;;;;;;5028042;28;20471;-49
2024/03/04 03:50:22;;;;;;;28.83;14.73;;;4.60;99.90;;;;;;5027990;28;20049;-49
2024/03/04 03:52:49;;;;;;;26.50;16.25;;;4.50;99.90;;;;;;5024948;28;20088;-52
2024/03/04 03:55:16;;;;;;;26.25;14.95;;;4.50;99.90;;;;;;5028026;28;20034;-51
2024/03/04 03:57:44;;;;;;;24.60;14.13;;;4.50;99.90;;;;;;5030677;28;20103;-43
2024/03/04 04:00:24;;;;;;;24.77;13.70;;;4.40;99.90;;;;;;5009238;28;20045;-55
2024/03/04 04:02:53;;;;;;;23.08;13.27;;;4.40;99.90;;;;;;5028026;28;20423;-48
2024/03/04 04:05:20;;;;;;;24.45;13.55;;;4.40;99.90;;;;;;5026706;28;20068;-50
2024/03/04 04:07:47;;;;;;;27.05;13.75;;;4.30;99.90;;;;;;5025930;28;20451;-53
2024/03/04 04:10:14;;;;;;;23.33;13.43;;;4.30;99.90;;;;;;5026824;28;20053;-51
2024/03/04 04:12:41;;;;;;;26.20;14.05;;;4.30;99.90;;;;;;5033090;28;20566;-49
2024/03/04 04:15:09;;;;;;;27.38;14.07;;;4.30;99.90;;;;;;5029392;28;20136;-50
2024/03/04 04:17:36;;;;;;;21.48;13.57;;;4.20;99.90;;;;;;5026490;28;20125;-46
2024/03/04 04:20:03;;;;;;;26.50;14.02;;;4.10;99.90;;;;;;5027082;28;20561;-49
2024/03/04 04:22:30;;;;;;;28.08;13.32;;;4.00;99.90;;;;;;5027132;28;20405;-50
2024/03/04 04:24:57;;;;;;;22.30;12.20;;;3.90;99.90;;;;;;5026112;28;20464;-46
2024/03/04 04:27:24;;;;;;;27.25;13.90;;;3.90;99.90;;;;;;5027490;28;20087;-56
2024/03/04 04:29:51;;;;;;;26.05;13.60;;;3.90;99.90;;;;;;5026637;28;20045;-51
2024/03/04 04:32:18;;;;;;;24.52;13.70;;;3.80;99.90;;;;;;5026560;28;20045;-51
2024/03/04 04:34:44;;;;;;;25.60;14.63;;;3.70;99.90;;;;;;5027260;28;20077;-47
2024/03/04 04:37:12;;;;;;;26.80;15.43;;;3.60;99.90;;;;;;5009372;28;20063;-49
2024/03/04 04:39:42;;;;;;;27.77;14.38;;;3.60;99.90;;;;;;5026445;28;20159;-51
2024/03/04 04:42:09;;;;;;;29.23;17.00;;;3.60;99.90;;;;;;5024351;28;20030;-47
2024/03/04 04:44:36;;;;;;;29.45;16.48;;;3.60;99.90;;;;;;5025505;28;20491;-51
2024/03/04 04:47:03;;;;;;;28.92;17.10;;;3.60;99.90;;;;;;5026192;28;20121;-50
2024/03/04 04:49:30;;;;;;;34.95;19.77;;;3.60;99.90;;;;;;5026574;28;20548;-54
2024/03/04 04:51:57;;;;;;;34.13;18.63;;;3.60;99.90;;;;;;5006973;28;20045;-49
2024/03/04 04:54:24;;;;;;;34.92;19.05;;;3.70;99.90;;;;;;5038183;28;20316;-50
2024/03/04 04:56:51;;;;;;;36.63;18.45;;;3.70;99.90;;;;;;5025068;28;20163;-45
2024/03/04 04:59:18;;;;;;;33.75;18.60;;;3.70;99.90;;;;;;5027046;28;20069;-51
2024/03/04 05:01:45;;;;;;;32.25;18.20;;;3.70;99.90;;;;;;5025010;28;20041;-51
2024/03/04 05:04:13;;;;;;;34.28;17.30;;;3.70;99.90;;;;;;5026232;28;20042;-54
2024/03/04 05:07:00;;;;;;;33.90;17.33;;;3.70;99.90;;;;;;5021679;28;20041;-47
2024/03/04 05:09:27;;;;;;;30.65;17.10;;;3.80;99.90;;;;;;5026172;28;20056;-49
2024/03/04 05:11:54;;;;;;;30.20;17.63;;;3.80;99.90;;;;;;5029332;28;20494;-47
2024/03/04 05:14:21;;;;;;;34.38;19.50;;;3.80;99.90;;;;;;5028800;28;20138;-46
2024/03/04 05:16:48;;;;;;;34.05;18.38;;;3.80;99.90;;;;;;5028839;28;20033;-51
2024/03/04 05:19:15;;;;;;;28.58;17.30;;;3.90;99.90;;;;;;5024026;28;20071;-50
2024/03/04 05:21:43;;;;;;;41.22;19.35;;;3.80;99.90;;;;;;5025196;28;20219;-48
2024/03/04 05:24:10;;;;;;;35.75;18.77;;;3.80;99.90;;;;;;5024747;28;20037;-48
2024/03/04 05:26:37;;;;;;;37.33;21.58;;;3.90;99.90;;;;;;5026102;28;20539;-46
2024/03/04 05:29:04;;;;;;;34.38;19.27;;;3.90;99.90;;;;;;5025761;28;20044;-49
2024/03/04 05:31:32;;;;;;;36.83;19.90;;;3.90;99.90;;;;;;5024292;28;20076;-51
2024/03/04 05:33:59;;;;;;;35.65;18.35;;;3.90;99.90;;;;;;5027257;28;21024;-51
2024/03/04 05:36:26;;;;;;;30.95;18.15;;;3.90;99.90;;;;;;5025456;28;20459;-46
2024/03/04 05:38:53;;;;;;;36.80;19.73;;;3.90;99.90;;;;;;5010140;28;20430;-52
2024/03/04 05:41:20;;;;;;;35.65;18.48;;;3.90;99.90;;;;;;5009068;28;20052;-50
2024/03/04 05:43:47;;;;;;;33.33;17.80;;;3.90;99.90;;;;;;5025560;28;20046;-47
2024/03/04 05:46:14;;;;;;;29.70;17.02;;;3.90;99.90;;;;;;5025960;28;20387;-48
2024/03/04 05:48:41;;;;;;;33.30;18.00;;;3.80;99.90;;;;;;5026325;28;20424;-51
2024/03/04 05:51:08;;;;;;;34.67;20.30;;;3.80;99.90;;;;;;5025673;28;20061;-52
2024/03/04 05:53:35;;;;;;;33.88;18.50;;;3.80;99.90;;;;;;5029053;28;20125;-48
2024/03/04 05:56:05;;;;;;;35.85;18.85;;;3.80;99.90;;;;;;5024500;28;20041;-47
2024/03/04 05:58:32;;;;;;;35.22;20.02;;;3.80;99.90;;;;;;5025124;28;20447;-45
2024/03/04 06:01:00;;;;;;;34.90;18.45;;;3.90;99.90;;;;;;5028390;28;20044;-50
2024/03/04 06:03:27;;;;;;;31.17;17.52;;;3.90;99.90;;;;;;5024381;28;20050;-49
2024/03/04 06:05:54;;;;;;;33.53;18.45;;;3.90;99.90;;;;;;5028716;28;20045;-50
2024/03/04 06:08:21;;;;;;;35.10;19.52;;;3.90;99.90;;;;;;5028874;28;20041;-48
2024/03/04 06:10:48;;;;;;;34.35;19.10;;;3.90;99.90;;;;;;5025875;28;20420;-47
2024/03/04 06:13:15;;;;;;;38.00;18.52;;;3.90;99.90;;;;;;5029994;28;20083;-47
2024/03/04 06:15:42;;;;;;;39.45;20.75;;;3.90;99.90;;;;;;5026674;28;20058;-46
2024/03/04 06:18:09;;;;;;;38.88;21.08;;;3.90;99.90;;;;;;5024287;28;20045;-46
2024/03/04 06:20:36;;;;;;;30.67;18.60;;;3.90;99.90;;;;;;5028069;28;20045;-47
2024/03/04 06:23:03;;;;;;;35.60;20.88;;;4.00;99.90;;;;;;5024775;28;20046;-49
2024/03/04 06:25:30;;;;;;;38.38;21.13;;;4.00;99.90;;;;;;5025740;28;20128;-48
2024/03/04 06:27:57;;;;;;;34.35;20.10;;;4.10;99.90;;;;;;5029756;28;20479;-50
2024/03/04 06:30:24;;;;;;;35.70;19.63;;;4.10;99.90;;;;;;5032256;28;20049;-52
2024/03/04 06:32:51;;;;;;;35.03;20.20;;;4.20;99.90;;;;;;5023233;28;20049;-52
2024/03/04 06:35:18;;;;;;;34.80;19.58;;;4.30;99.90;;;;;;5026548;28;20130;-52
2024/03/04 06:37:45;;;;;;;37.22;19.15;;;4.40;99.90;;;;;;5029642;28;20495;-45
2024/03/04 06:40:12;;;;;;;39.35;19.15;;;4.50;99.90;;;;;;5027919;28;20041;-48
2024/03/04 06:42:39;;;;;;;38.42;20.05;;;4.60;99.90;;;;;;5023199;28;20088;-49
2024/03/04 06:45:07;;;;;;;34.25;18.42;;;4.70;99.90;;;;;;5028778;28;20522;-44
2024/03/04 06:47:33;;;;;;;34.20;19.02;;;4.70;99.90;;;;;;5026669;28;20049;-49
2024/03/04 06:50:01;;;;;;;34.45;18.30;;;4.80;99.90;;;;;;5028786;28;20122;-52
2024/03/04 06:52:28;;;;;;;36.88;18.75;;;4.90;99.90;;;;;;5024782;28;20041;-53
2024/03/04 06:54:56;;;;;;;32.60;18.40;;;5.10;99.90;;;;;;5029782;28;20049;-43
2024/03/04 06:57:22;;;;;;;33.53;18.58;;;5.20;99.90;;;;;;5030626;28;20049;-46
2024/03/04 06:59:49;;;;;;;33.35;18.15;;;5.30;99.90;;;;;;5029583;28;20038;-50
2024/03/04 07:02:16;;;;;;;32.50;17.13;;;5.30;99.90;;;;;;5030296;28;20030;-47
2024/03/04 07:04:43;;;;;;;28.75;16.77;;;5.40;99.90;;;;;;5030577;28;20052;-51
2024/03/04 07:07:10;;;;;;;29.48;17.15;;;5.40;99.90;;;;;;5030349;28;20148;-51
2024/03/04 07:09:37;;;;;;;31.02;17.05;;;5.40;99.90;;;;;;5032135;28;20387;-47
2024/03/04 07:12:06;;;;;;;31.45;17.33;;;5.40;99.90;;;;;;5034652;28;20111;-51
2024/03/04 07:14:33;;;;;;;30.35;16.80;;;5.40;99.90;;;;;;5031593;28;20057;-45
2024/03/04 07:17:00;;;;;;;28.20;15.73;;;5.50;99.90;;;;;;5032317;28;20052;-47
2024/03/04 07:19:26;;;;;;;29.25;16.25;;;5.50;99.90;;;;;;5029793;28;20052;-49
2024/03/04 07:21:53;;;;;;;28.08;15.88;;;5.60;99.90;;;;;;5028802;28;20351;-47
2024/03/04 07:24:21;;;;;;;26.75;16.33;;;5.70;99.90;;;;;;5030350;28;20037;-49
2024/03/04 07:26:48;;;;;;;28.60;15.88;;;5.80;99.90;;;;;;5028362;28;20037;-50
2024/03/04 07:29:15;;;;;;;30.40;16.67;;;5.90;99.90;;;;;;5030687;28;20037;-47
2024/03/04 07:31:57;;;;;;;32.58;16.33;;;6.00;99.90;;;;;;5030416;28;20050;-46
2024/03/04 07:34:26;;;;;;;28.20;17.30;;;6.10;99.90;;;;;;5030612;28;20046;-49
2024/03/04 07:36:53;;;;;;;25.50;15.77;;;6.10;99.90;;;;;;5028256;28;20052;-48
2024/03/04 07:39:22;;;;;;;29.27;17.92;;;6.20;99.90;;;;;;5031633;28;20152;-42
2024/03/04 07:41:50;;;;;;;29.90;17.67;;;6.20;99.90;;;;;;5031432;28;20127;-51
2024/03/04 07:44:17;;;;;;;29.23;16.92;;;6.10;99.90;;;;;;5031250;28;20045;-47
2024/03/04 07:46:47;;;;;;;32.58;18.02;;;6.10;99.90;;;;;;5032525;28;20049;-52
2024/03/04 07:49:14;;;;;;;30.25;17.85;;;6.20;99.90;;;;;;5033425;28;20055;-47
2024/03/04 07:51:41;;;;;;;31.73;17.88;;;6.20;99.90;;;;;;5030867;28;20048;-52
2024/03/04 07:54:08;;;;;;;29.15;17.52;;;6.30;99.90;;;;;;5035808;28;20510;-50
2024/03/04 07:56:35;;;;;;;26.15;16.42;;;6.40;99.90;;;;;;5033661;28;20076;-46
2024/03/04 07:59:02;;;;;;;35.25;17.95;;;6.40;99.90;;;;;;5034647;28;20571;-49
2024/03/04 08:01:29;;;;;;;31.95;17.58;;;6.50;99.90;;;;;;5033074;28;20045;-47
2024/03/04 08:03:56;;;;;;;31.17;17.42;;;6.70;99.90;;;;;;5032242;28;20120;-45
2024/03/04 08:06:23;;;;;;;31.83;16.85;;;6.80;99.90;;;;;;5033996;28;20064;-49
2024/03/04 08:08:50;;;;;;;28.08;16.08;;;6.90;99.90;;;;;;5030465;28;20156;-50
2024/03/04 08:11:17;;;;;;;27.95;16.30;;;6.90;99.90;;;;;;5033357;28;20160;-46
2024/03/04 08:13:44;;;;;;;34.05;18.70;;;7.00;99.90;;;;;;5035642;28;21854;-47
2024/03/04 08:16:11;;;;;;;30.77;17.27;;;7.00;99.90;;;;;;5037125;28;20064;-51
2024/03/04 08:18:38;;;;;;;27.63;17.55;;;7.10;99.90;;;;;;5028963;28;20474;-51
2024/03/04 08:21:05;;;;;;;34.35;16.98;;;7.20;99.90;;;;;;5030147;28;20087;-48
2024/03/04 08:23:32;;;;;;;29.25;17.48;;;7.10;99.90;;;;;;5012365;28;20139;-51
2024/03/04 08:25:59;;;;;;;29.75;17.02;;;7.20;99.90;;;;;;5028451;28;20038;-48
2024/03/04 08:28:26;;;;;;;26.27;16.38;;;7.40;99.90;;;;;;5027680;28;20072;-48
2024/03/04 08:31:04;;;;;;;27.67;16.95;;;7.40;99.90;;;;;;5022464;28;20084;-47
2024/03/04 08:33:31;;;;;;;30.85;17.80;;;7.50;99.90;;;;;;5025567;28;20592;-47
2024/03/04 08:35:58;;;;;;;30.77;17.85;;;7.60;99.90;;;;;;5028126;28;20041;-47
2024/03/04 08:38:26;;;;;;;30.77;18.35;;;7.60;99.90;;;;;;5027746;28;20049;-48
2024/03/04 08:40:53;;;;;;;30.38;17.33;;;7.80;99.90;;;;;;5027592;28;20453;-49
2024/03/04 08:43:20;;;;;;;29.33;17.98;;;7.90;99.90;;;;;;5029923;28;20132;-45
2024/03/04 08:45:48;;;;;;;29.20;17.98;;;8.10;99.90;;;;;;5026848;28;20072;-50
2024/03/04 08:48:16;;;;;;;28.20;17.10;;;8.30;99.90;;;;;;5028883;28;20057;-52
2024/03/04 08:50:43;;;;;;;26.23;16.70;;;8.50;99.90;;;;;;5026291;28;20391;-48
2024/03/04 08:53:11;;;;;;;28.02;16.83;;;8.80;99.90;;;;;;5027186;28;20462;-48
2024/03/04 08:55:38;;;;;;;26.40;16.08;;;9.20;99.90;;;;;;5027732;28;20045;-47
2024/03/04 08:58:06;;;;;;;25.48;16.15;;;9.40;99.90;;;;;;5026563;28;20060;-49
2024/03/04 09:00:33;;;;;;;24.08;15.48;;;9.40;99.90;;;;;;5008436;28;20065;-46
2024/03/04 09:03:00;;;;;;;26.17;16.02;;;9.30;99.90;;;;;;5025773;28;20045;-52
2024/03/04 09:05:27;;;;;;;27.75;17.48;;;9.40;99.90;;;;;;5027298;28;20076;-45
2024/03/04 09:07:53;;;;;;;29.45;17.58;;;9.40;99.90;;;;;;5028608;28;20199;-49
2024/03/04 09:10:20;;;;;;;24.30;15.50;;;9.30;99.90;;;;;;5030021;28;20129;-48
2024/03/04 09:12:48;;;;;;;29.13;16.58;;;9.40;99.90;;;;;;5034269;28;20037;-51
2024/03/04 09:15:16;;;;;;;29.08;17.77;;;9.30;99.90;;;;;;5029060;28;20087;-45
2024/03/04 09:17:43;;;;;;;25.95;16.95;;;9.30;99.90;;;;;;5026160;28;20139;-48
2024/03/04 09:20:10;;;;;;;24.80;16.27;;;9.40;99.90;;;;;;5022534;28;20037;-49
2024/03/04 09:22:40;;;;;;;26.33;16.23;;;9.30;99.90;;;;;;5021223;28;20060;-50
2024/03/04 09:25:07;;;;;;;26.10;16.58;;;9.30;99.90;;;;;;5007639;28;20045;-47
2024/03/04 09:27:36;;;;;;;24.88;16.67;;;9.30;99.90;;;;;;5021065;28;20063;-46
2024/03/04 09:30:06;;;;;;;25.77;15.38;;;9.30;99.90;;;;;;5025182;28;20467;-48
2024/03/04 09:32:33;;;;;;;29.60;18.08;;;9.40;99.90;;;;;;5026661;28;20506;-47
2024/03/04 09:35:01;;;;;;;28.13;17.48;;;9.40;99.90;;;;;;5026876;28;20099;-53
2024/03/04 09:37:28;;;;;;;26.55;17.00;;;9.40;99.90;;;;;;5026203;28;20410;-51
2024/03/04 09:39:55;;;;;;;26.15;16.50;;;9.50;99.90;;;;;;5026488;28;20579;-54
2024/03/04 09:42:32;;;;;;;26.60;16.95;;;9.40;99.90;;;;;;5026616;28;20092;-53
2024/03/04 09:44:59;;;;;;;29.83;19.02;;;9.40;99.90;;;;;;5029039;28;20049;-54
2024/03/04 09:47:26;;;;;;;29.00;17.17;;;9.60;99.90;;;;;;5024993;28;20069;-50
2024/03/04 09:49:56;;;;;;;28.27;18.13;;;9.60;99.90;;;;;;5026243;28;20049;-47
2024/03/04 09:52:26;;;;;;;26.42;17.27;;;9.50;99.90;;;;;;5024608;28;20045;-55
2024/03/04 09:54:56;;;;;;;26.80;17.23;;;9.40;99.90;;;;;;5022310;28;20052;-47
2024/03/04 09:57:28;;;;;;;29.67;18.38;;;9.50;99.90;;;;;;5024091;28;20048;-48
2024/03/04 09:59:56;;;;;;;28.48;17.27;;;9.20;99.90;;;;;;5025155;28;20044;-50
2024/03/04 10:02:23;;;;;;;30.92;17.85;;;9.30;99.90;;;;;;5024257;28;20129;-48
2024/03/04 10:04:51;;;;;;;31.73;19.23;;;9.50;99.90;;;;;;5024829;28;20406;-49
2024/03/04 10:07:18;;;;;;;29.50;18.83;;;9.50;99.90;;;;;;5016854;28;20569;-47
2024/03/04 10:09:45;;;;;;;35.22;21.30;;;9.60;99.90;;;;;;5026402;28;20057;-48
2024/03/04 10:12:13;;;;;;;29.25;18.75;;;9.50;99.90;;;;;;5032329;28;20156;-49
2024/03/04 10:15:11;;;;;;;31.27;19.55;;;9.40;99.90;;;;;;5026345;28;20069;-47
2024/03/04 10:17:39;;;;;;;30.75;19.42;;;9.40;99.90;;;;;;5023154;28;20121;-54
2024/03/04 10:20:08;;;;;;;30.77;19.33;;;9.40;99.90;;;;;;5025567;28;20033;-49
2024/03/04 10:22:38;;;;;;;29.65;18.63;;;9.50;99.90;;;;;;5025526;28;20212;-50
2024/03/04 10:25:07;;;;;;;30.30;19.35;;;9.50;99.90;;;;;;5025781;28;20060;-50
2024/03/04 10:27:42;;;;;;;31.00;20.02;;;9.40;99.90;;;;;;5022222;28;20560;-45
2024/03/04 10:30:14;;;;;;;31.50;19.50;;;9.50;99.90;;;;;;5025819;28;20091;-49
2024/03/04 10:32:48;;;;;;;;;;;9.60;99.90;;;;;;5024358;28;20171;-48
2024/03/04 10:35:16;;;;;;;31.35;19.90;;;9.70;99.90;;;;;;5016308;28;19925;-45
2024/03/04 10:37:44;;;;;;;29.15;19.13;;;9.60;99.90;;;;;;5024442;28;20057;-50
2024/03/04 10:40:12;;;;;;;32.83;20.88;;;9.70;99.90;;;;;;5023842;28;20037;-47
2024/03/04 10:42:44;;;;;;;33.50;20.75;;;9.80;99.90;;;;;;5024566;28;20033;-49
2024/03/04 10:45:12;;;;;;;32.38;21.50;;;9.70;99.90;;;;;;5026284;28;20080;-43
2024/03/04 10:47:44;;;;;;;29.77;19.48;;;9.60;99.90;;;;;;5025891;28;20103;-47
2024/03/04 10:50:12;;;;;;;31.63;19.50;;;9.60;99.90;;;;;;5026599;28;20045;-55
2024/03/04 10:52:39;;;;;;;34.95;20.65;;;9.80;99.90;;;;;;5025597;28;20137;-51
2024/03/04 10:55:07;;;;;;;35.45;20.45;;;10.00;99.90;;;;;;5024475;28;20041;-50
2024/03/04 10:57:34;;;;;;;34.85;21.33;;;10.00;99.90;;;;;;5024091;28;20054;-52
2024/03/04 11:00:10;;;;;;;37.35;21.42;;;10.10;99.90;;;;;;5005715;28;20042;-46
2024/03/04 11:02:45;;;;;;;34.08;22.13;;;10.00;99.90;;;;;;5025370;28;20359;-46
2024/03/04 11:05:14;;;;;;;32.17;19.58;;;9.90;99.90;;;;;;5024713;28;20046;-51
2024/03/04 11:07:42;;;;;;;34.92;20.45;;;9.70;99.90;;;;;;5028454;28;20076;-50
2024/03/04 11:10:26;;;;;;;38.70;21.70;;;9.70;99.90;;;;;;5028466;28;20034;-48
2024/03/04 11:13:17;;;;;;;38.75;22.52;;;9.50;99.90;;;;;;5034601;28;20060;-49
2024/03/04 11:15:57;;;;;;;33.10;20.55;;;9.40;99.90;;;;;;5001209;28;20497;-47
2024/03/04 11:18:52;;;;;;;36.08;22.02;;;9.40;99.90;;;;;;5010946;28;20041;-50
2024/03/04 11:21:20;;;;;;;36.75;21.52;;;9.20;99.90;;;;;;5010093;28;20080;-54
2024/03/04 11:23:49;;;;;;;34.50;21.45;;;9.30;99.90;;;;;;5008760;28;20128;-50
2024/03/04 11:26:16;;;;;;;37.08;21.67;;;9.30;99.90;;;;;;5026874;28;20040;-48
2024/03/04 11:28:45;;;;;;;37.58;21.55;;;9.40;99.90;;;;;;5026140;28;20157;-46
2024/03/04 11:31:29;;;;;;;36.75;21.45;;;9.50;99.90;;;;;;5026565;28;20107;-51
2024/03/04 11:34:10;;;;;;;37.00;20.80;;;9.60;99.90;;;;;;5025185;28;20132;-47
2024/03/04 11:36:39;;;;;;;41.08;21.98;;;9.70;99.90;;;;;;5026195;28;20446;-49
2024/03/04 11:39:14;;;;;;;38.28;22.75;;;9.50;99.90;;;;;;5027374;28;20049;-48
2024/03/04 11:41:44;;;;;;;42.83;24.05;;;9.60;99.90;;;;;;5026061;28;20048;-50
2024/03/04 11:44:11;;;;;;;41.33;23.70;;;9.70;99.90;;;;;;5009729;28;20033;-50
2024/03/04 11:46:43;;;;;;;40.13;22.70;;;9.60;99.90;;;;;;5026181;28;20042;-50
2024/03/04 11:49:22;;;;;;;40.20;23.27;;;9.60;99.90;;;;;;5026778;28;20052;-51
2024/03/04 11:51:59;;;;;;;39.67;22.13;;;9.60;99.90;;;;;;5026487;28;20059;-48
2024/03/04 11:54:32;;;;;;;41.80;23.10;;;9.70;99.90;;;;;;5024752;28;20576;-51
2024/03/04 11:57:00;;;;;;;42.10;24.17;;;9.90;99.90;;;;;;5021317;28;20586;-51
2024/03/04 11:59:30;;;;;;;39.28;23.90;;;9.70;99.90;;;;;;5024522;28;20045;-54
2024/03/04 12:01:57;;;;;;;47.72;25.05;;;9.60;99.90;;;;;;5027483;28;20060;-49
2024/03/04 12:04:26;;;;;;;46.65;24.45;;;9.50;99.90;;;;;;5027358;28;20123;-50
2024/03/04 12:06:54;;;;;;;45.67;25.98;;;9.50;99.90;;;;;;5021164;28;20561;-46
2024/03/04 12:09:25;;;;;;;46.50;25.13;;;9.20;99.90;;;;;;5030075;28;20115;-52
2024/03/04 12:12:14;;;;;;;47.28;25.10;;;9.20;99.90;;;;;;5033872;28;20045;-47
2024/03/04 12:14:44;;;;;;;46.85;26.55;;;9.30;99.90;;;;;;5029399;28;20057;-46
2024/03/04 12:17:13;;;;;;;48.75;25.92;;;9.40;99.90;;;;;;5028641;28;20041;-51
2024/03/04 12:19:54;;;;;;;45.47;26.50;;;9.40;99.90;;;;;;5025750;28;20034;-49
2024/03/04 12:22:25;;;;;;;46.47;25.55;;;9.50;99.90;;;;;;5024647;28;20073;-49
2024/03/04 12:25:02;;;;;;;47.95;24.42;;;9.70;99.90;;;;;;5024260;28;20111;-54
2024/03/04 12:27:33;;;;;;;46.25;25.80;;;10.10;99.90;;;;;;5022447;28;20120;-54
2024/03/04 12:30:10;;;;;;;50.42;26.17;;;10.20;99.90;;;;;;5019742;28;20128;-52
2024/03/04 12:32:37;;;;;;;46.53;25.15;;;10.20;99.90;;;;;;5026525;28;20080;-50
2024/03/04 12:35:19;;;;;;;45.83;25.33;;;10.30;99.90;;;;;;5024652;28;20103;-51
2024/03/04 12:37:48;;;;;;;48.05;25.73;;;10.30;99.90;;;;;;5023979;28;20478;-49
2024/03/04 12:40:20;;;;;;;44.53;24.55;;;10.40;99.90;;;;;;5025799;28;20042;-52
2024/03/04 12:42:52;;;;;;;;;;;10.40;99.90;;;;;;5025051;28;20052;-51
2024/03/04 12:45:19;;;;;;;41.95;24.08;;;10.30;99.90;;;;;;5026449;28;19924;-52